This is the latest recevied weather packets stored in our database for station/object OE-11272. If no packets are shown the sender has not sent any weather packets the latest 10 day(s).
| Time | Temp. | Humidity | Pressure | Rain* | Wind** | Luminosity | Snow |
|---|---|---|---|---|---|---|---|
| 1788072925 | 18.33° C | 86% | 1018 hPa | 0 mm | - | 325 W/m² | - |
| 1788072099 | 18.33° C | 87% | 1017.9 hPa | 0 mm | - | 300 W/m² | - |
| 1788071726 | 17.78° C | 90% | 1018.1 hPa | 0 mm | - | 269 W/m² | - |
| 1788071126 | 17.78° C | 90% | 1018.1 hPa | 0 mm | - | 237 W/m² | - |
| 1788070299 | 17.22° C | 92% | 1018.2 hPa | 0 mm | - | 212 W/m² | - |
| 1788069925 | 16.11° C | 98% | 1018.3 hPa | 0 mm | - | 181 W/m² | - |
| 1788069326 | 16.11° C | 95% | 1018.3 hPa | 0 mm | - | 119 W/m² | - |
| 1788068499 | 15.56° C | 99% | 1018.4 hPa | 0 mm | - | 50 W/m² | - |
| 1788068126 | 15° C | 100% | 1018.6 hPa | 0 mm | - | 44 W/m² | - |
| 1788067526 | 14.44° C | 100% | 1018.8 hPa | 0 mm | - | 37 W/m² | - |
| 1788066699 | 14.44° C | 100% | 1018.7 hPa | 0 mm | - | 25 W/m² | - |
| 1788066325 | 15° C | 99% | 1018.5 hPa | 0 mm | - | 12 W/m² | - |
| 1788065725 | 15° C | 100% | 1018.4 hPa | 0 mm | - | 6 W/m² | - |
| 1788064898 | 15° C | 100% | 1018.4 hPa | 0 mm | - | 6 W/m² | - |
| 1788064525 | 15° C | 100% | 1018.4 hPa | 0 mm | - | 0 W/m² | - |
| 1788063925 | 15° C | 100% | 1018.3 hPa | 0 mm | - | 0 W/m² | - |
| 1788063098 | 15.56° C | 100% | 1018.1 hPa | 0 mm | - | 0 W/m² | - |
| 1788062725 | 15.56° C | 100% | 1018 hPa | 0 mm | - | 0 W/m² | - |
| 1788062125 | 15.56° C | 100% | 1018.1 hPa | 0 mm | - | 0 W/m² | - |
| 1788061526 | 15.56° C | 100% | 1018.1 hPa | 0 mm | - | 0 W/m² | - |
| 1788060925 | 15.56° C | 100% | 1018.1 hPa | 0 mm | - | 0 W/m² | - |
| 1788060325 | 16.11° C | 99% | 1018.1 hPa | 0 mm | - | 0 W/m² | - |
| 1788059499 | 16.11° C | 98% | 1018.1 hPa | 0 mm | - | 0 W/m² | - |
| 1788059126 | 16.11° C | 98% | 1018 hPa | 0 mm | - | 0 W/m² | - |
| 1788058526 | 16.67° C | 97% | 1018 hPa | 0 mm | - | 0 W/m² | - |
* Rain latest hour (hover to see other rain measurements)
** Current wind speed in m/s (hover to see current wind gust speed)